Time;durP1;ratioP1;P1;durP2;ratioP2;P2;SDS_P1;SDS_P2;PMS_P1;PMS_P2;Temp;Humidity;BMP_temperature;BMP_pressure;BME280_temperature;BME280_humidity;BME280_pressure;Samples;Min_cycle;Max_cycle;Signal;HPM_P1;HPM_P2
2023/09/15 00:01:21;;;;;;;0.00;0.00;;;;;;;15.12;100.00;101943.78;5112419;28;20034;-44
2023/09/15 00:03:47;;;;;;;0.00;0.00;;;;;;;15.08;100.00;101938.91;5114171;28;20031;-45
2023/09/15 00:06:12;;;;;;;0.00;0.00;;;;;;;15.04;100.00;101946.56;5113828;28;20023;-44
2023/09/15 00:08:38;;;;;;;0.00;0.00;;;;;;;15.05;100.00;101942.81;5113780;28;20034;-44
2023/09/15 00:11:03;;;;;;;0.00;0.00;;;;;;;15.05;100.00;101934.69;5101506;28;20122;-43
2023/09/15 00:13:29;;;;;;;0.00;0.00;;;;;;;15.05;100.00;101937.38;5099890;28;20032;-45
2023/09/15 00:15:54;;;;;;;0.00;0.00;;;;;;;15.06;100.00;101940.94;5092858;28;20020;-44
2023/09/15 00:18:19;;;;;;;0.00;0.00;;;;;;;15.06;100.00;101939.09;5111681;28;20034;-43
2023/09/15 00:20:45;;;;;;;0.00;0.00;;;;;;;15.03;100.00;101942.16;5116479;27;20019;-42
2023/09/15 00:23:10;;;;;;;0.00;0.00;;;;;;;15.01;100.00;101940.66;5133600;27;20023;-47
2023/09/15 00:25:36;;;;;;;0.00;0.00;;;;;;;14.96;100.00;101933.09;5133794;27;20480;-44
2023/09/15 00:28:03;;;;;;;0.00;0.00;;;;;;;14.94;100.00;101940.56;5133586;27;20031;-47
2023/09/15 00:30:29;;;;;;;0.00;0.00;;;;;;;14.92;100.00;101934.47;5122500;27;20028;-44
2023/09/15 00:32:55;;;;;;;0.00;0.00;;;;;;;14.91;100.00;101935.50;5092625;28;20432;-45
2023/09/15 00:35:24;;;;;;;0.00;0.00;;;;;;;14.86;100.00;101930.63;5111396;28;20084;-46
2023/09/15 00:37:50;;;;;;;0.00;0.00;;;;;;;14.87;100.00;101926.06;5113128;28;20562;-44
2023/09/15 00:40:18;;;;;;;0.00;0.00;;;;;;;14.87;100.00;101931.47;5111279;28;20076;-45
2023/09/15 00:42:44;;;;;;;0.00;0.00;;;;;;;14.84;100.00;101934.56;5112598;28;20039;-43
2023/09/15 00:45:19;;;;;;;0.00;0.00;;;;;;;14.84;100.00;101939.97;5112927;28;20083;-42
2023/09/15 00:47:46;;;;;;;0.00;0.00;;;;;;;14.79;100.00;101932.38;5105956;28;20031;-45
2023/09/15 00:50:17;;;;;;;0.00;0.00;;;;;;;14.77;100.00;101933.59;5092371;28;20020;-45
2023/09/15 00:52:45;;;;;;;0.00;0.00;;;;;;;14.73;100.00;101933.13;5093090;28;20023;-43
2023/09/15 00:55:13;;;;;;;0.00;0.00;;;;;;;14.70;100.00;101931.63;5092899;28;20119;-47
2023/09/15 00:57:39;;;;;;;0.00;0.00;;;;;;;14.68;100.00;101930.13;5092556;28;20237;-44
2023/09/15 01:00:11;;;;;;;0.00;0.00;;;;;;;14.68;100.00;101930.97;5090827;28;20055;-43
2023/09/15 01:02:39;;;;;;;0.00;0.00;;;;;;;14.65;100.00;101925.06;5091449;28;20035;-45
2023/09/15 01:05:04;;;;;;;0.00;0.00;;;;;;;14.63;100.00;101922.53;5095192;28;20103;-46
2023/09/15 01:07:30;;;;;;;0.00;0.00;;;;;;;14.62;100.00;101922.72;5112229;28;20446;-45
2023/09/15 01:09:55;;;;;;;0.00;0.00;;;;;;;14.59;100.00;101923.94;5112348;28;20027;-44
2023/09/15 01:12:21;;;;;;;0.00;0.00;;;;;;;14.58;100.00;101924.94;5092155;28;20105;-44
2023/09/15 01:14:46;;;;;;;0.00;0.00;;;;;;;14.56;100.00;101926.16;5102235;28;20032;-46
2023/09/15 01:17:26;;;;;;;0.00;0.00;;;;;;;14.54;100.00;101918.22;5094900;28;20548;-46
2023/09/15 01:20:09;;;;;;;0.00;0.00;;;;;;;14.54;100.00;101918.22;5089766;28;20059;-43
2023/09/15 01:23:13;;;;;;;0.00;0.00;;;;;;;14.54;100.00;101915.50;5094404;28;20454;-44
2023/09/15 01:26:11;;;;;;;0.00;0.00;;;;;;;14.51;100.00;101907.72;5088546;28;20040;-43
2023/09/15 01:29:21;;;;;;;0.00;0.00;;;;;;;14.48;100.00;101908.06;5111903;28;20023;-45
2023/09/15 01:31:48;;;;;;;0.00;0.00;;;;;;;14.43;100.00;101910.50;5099706;28;20028;-42
2023/09/15 01:34:16;;;;;;;0.00;0.00;;;;;;;14.37;100.00;101906.63;5091483;28;20073;-43
2023/09/15 01:36:42;;;;;;;0.00;0.00;;;;;;;14.37;100.00;101901.22;5091544;28;20024;-44
2023/09/15 01:39:08;;;;;;;0.00;0.00;;;;;;;14.40;100.00;101905.41;5091514;28;20020;-45
2023/09/15 01:41:33;;;;;;;0.00;0.00;;;;;;;14.35;100.00;101908.69;5090549;28;20137;-46
2023/09/15 01:43:59;;;;;;;0.00;0.00;;;;;;;14.32;100.00;101905.47;5093622;28;20497;-43
2023/09/15 01:46:24;;;;;;;0.00;0.00;;;;;;;14.25;100.00;101895.38;5095454;28;20057;-44
2023/09/15 01:48:55;;;;;;;0.00;0.00;;;;;;;14.27;100.00;101898.75;5108135;28;20042;-45
2023/09/15 01:51:21;;;;;;;0.00;0.00;;;;;;;14.28;100.00;101903.16;5096095;28;20028;-45
2023/09/15 01:53:47;;;;;;;0.00;0.00;;;;;;;14.27;100.00;101901.47;5092028;28;20020;-45
2023/09/15 01:56:15;;;;;;;0.00;0.00;;;;;;;14.27;100.00;101906.88;5089246;28;20074;-44
2023/09/15 01:58:41;;;;;;;0.00;0.00;;;;;;;14.30;100.00;101900.28;5090618;28;20040;-44
2023/09/15 02:01:06;;;;;;;0.00;0.00;;;;;;;14.28;100.00;101900.44;5090136;28;20131;-43
2023/09/15 02:03:31;;;;;;;0.00;0.00;;;;;;;14.28;100.00;101886.91;5090576;28;20028;-45
2023/09/15 02:06:03;;;;;;;0.00;0.00;;;;;;;14.30;100.00;101888.56;5091410;28;20023;-44
2023/09/15 02:08:28;;;;;;;0.00;0.00;;;;;;;14.30;100.00;101888.56;5090629;28;20020;-45
2023/09/15 02:10:53;;;;;;;0.00;0.00;;;;;;;14.30;100.00;101884.03;5091922;28;20028;-46
2023/09/15 02:13:19;;;;;;;0.00;0.00;;;;;;;14.28;100.00;101884.19;5092571;28;20028;-45
2023/09/15 02:15:44;;;;;;;0.00;0.00;;;;;;;14.26;100.00;101888.94;5109526;28;20015;-46
2023/09/15 02:18:10;;;;;;;0.00;0.00;;;;;;;14.23;100.00;101877.63;5110227;28;20088;-43
2023/09/15 02:20:35;;;;;;;0.00;0.00;;;;;;;14.20;100.00;101889.66;5097119;28;20064;-46
2023/09/15 02:23:03;;;;;;;0.00;0.00;;;;;;;14.18;100.00;101880.88;5090626;28;20058;-46
2023/09/15 02:25:30;;;;;;;0.00;0.00;;;;;;;14.21;100.00;101885.94;5106098;28;20024;-43
2023/09/15 02:27:56;;;;;;;0.00;0.00;;;;;;;14.18;100.00;101880.88;5091596;28;20066;-46
2023/09/15 02:30:21;;;;;;;0.00;0.00;;;;;;;14.15;100.00;101881.25;5089385;28;20059;-44
2023/09/15 02:32:46;;;;;;;0.00;0.00;;;;;;;14.11;100.00;101885.31;5090268;28;20071;-43
2023/09/15 02:35:12;;;;;;;0.00;0.00;;;;;;;14.10;100.00;101888.22;5094003;28;20035;-48
2023/09/15 02:37:37;;;;;;;0.00;0.00;;;;;;;14.08;100.00;101888.38;5089914;28;20031;-44
2023/09/15 02:40:04;;;;;;;0.00;0.00;;;;;;;14.07;100.00;101878.59;5091610;28;20049;-46
2023/09/15 02:42:30;;;;;;;0.00;0.00;;;;;;;14.06;100.00;101874.22;5109534;28;20032;-44
2023/09/15 02:44:55;;;;;;;0.00;0.00;;;;;;;14.05;100.00;101875.22;5103962;28;20494;-44
2023/09/15 02:47:20;;;;;;;0.00;0.00;;;;;;;14.05;100.00;101875.22;5088791;28;20036;-45
2023/09/15 02:49:46;;;;;;;0.00;0.00;;;;;;;14.01;100.00;101876.63;5090547;28;20650;-46
2023/09/15 02:52:11;;;;;;;0.00;0.00;;;;;;;13.99;100.00;101870.53;5090360;28;20036;-44
2023/09/15 02:54:37;;;;;;;0.00;0.00;;;;;;;13.94;100.00;101873.75;5092627;28;20046;-46
2023/09/15 02:57:03;;;;;;;0.00;0.00;;;;;;;13.93;100.00;101876.63;5098672;28;20046;-45
2023/09/15 02:59:28;;;;;;;0.00;0.00;;;;;;;13.91;100.00;101879.53;5110301;28;20047;-45
2023/09/15 03:01:54;;;;;;;0.00;0.00;;;;;;;13.92;100.00;101872.25;5097781;28;20020;-44
2023/09/15 03:04:19;;;;;;;0.00;0.00;;;;;;;13.91;100.00;101878.72;5100615;28;20039;-43
2023/09/15 03:06:46;;;;;;;0.00;0.00;;;;;;;13.88;100.00;101865.53;5113149;28;20431;-45
2023/09/15 03:09:12;;;;;;;0.00;0.00;;;;;;;13.86;100.00;101870.28;5114834;28;20104;-43
2023/09/15 03:11:37;;;;;;;0.00;0.00;;;;;;;13.82;100.00;101870.63;5114534;28;20028;-46
2023/09/15 03:14:03;;;;;;;0.00;0.00;;;;;;;13.84;100.00;101865.88;5101308;28;20035;-46
2023/09/15 03:16:29;;;;;;;0.00;0.00;;;;;;;13.81;100.00;101862.69;5094099;28;20059;-45
2023/09/15 03:18:55;;;;;;;0.00;0.00;;;;;;;13.79;100.00;101859.31;5093969;28;20024;-44
2023/09/15 03:21:20;;;;;;;0.00;0.00;;;;;;;13.76;100.00;101855.09;5105493;28;20540;-43
2023/09/15 03:23:48;;;;;;;0.00;0.00;;;;;;;13.73;100.00;101863.56;5114228;28;20022;-45
2023/09/15 03:26:13;;;;;;;;;;;;;;;13.71;100.00;101857.50;5114643;28;20042;-43
2023/09/15 03:28:39;;;;;;;0.00;0.00;;;;;;;13.69;100.00;101859.56;5114157;28;19908;-46
2023/09/15 03:31:04;;;;;;;0.00;0.00;;;;;;;13.73;100.00;101857.34;5114609;28;20023;-43
2023/09/15 03:33:33;;;;;;;0.00;0.00;;;;;;;13.72;100.00;101859.19;5115789;28;20082;-42
2023/09/15 03:36:00;;;;;;;0.00;0.00;;;;;;;13.68;100.00;101855.16;5115704;28;20493;-44
2023/09/15 03:38:25;;;;;;;0.00;0.00;;;;;;;13.61;100.00;101851.47;5103304;28;20032;-43
2023/09/15 03:40:50;;;;;;;0.00;0.00;;;;;;;13.60;100.00;101852.50;5115639;28;20081;-45
2023/09/15 03:43:16;;;;;;;0.00;0.00;;;;;;;13.58;100.00;101862.63;5114555;28;20469;-46
2023/09/15 03:45:46;;;;;;;0.00;0.00;;;;;;;13.56;100.00;101853.84;5114153;28;20023;-42
2023/09/15 03:48:12;;;;;;;0.00;0.00;;;;;;;13.54;100.00;101847.81;5114950;27;20135;-43
2023/09/15 03:50:37;;;;;;;0.00;0.00;;;;;;;13.55;100.00;101857.59;5127683;27;20512;-43
2023/09/15 03:53:03;;;;;;;0.00;0.00;;;;;;;13.55;100.00;101852.19;5134275;27;20076;-46
2023/09/15 03:55:28;;;;;;;0.00;0.00;;;;;;;13.51;100.00;101857.09;5099616;27;20540;-43
2023/09/15 03:57:53;;;;;;;0.00;0.00;;;;;;;13.48;100.00;101849.34;5092852;28;20020;-43
2023/09/15 04:00:19;;;;;;;0.00;0.00;;;;;;;13.48;100.00;101848.47;5092910;28;20051;-46
2023/09/15 04:02:45;;;;;;;0.00;0.00;;;;;;;13.46;100.00;101850.56;5093345;28;20541;-43
2023/09/15 04:05:10;;;;;;;0.00;0.00;;;;;;;13.42;100.00;101868.13;5092812;28;20028;-44
2023/09/15 04:07:40;;;;;;;0.00;0.00;;;;;;;13.37;100.00;101855.97;5092251;28;20024;-45
2023/09/15 04:10:06;;;;;;;0.00;0.00;;;;;;;13.36;100.00;101858.88;5092797;28;20024;-43
2023/09/15 04:12:34;;;;;;;0.00;0.00;;;;;;;13.35;100.00;101859.91;5094052;28;20020;-44
2023/09/15 04:15:00;;;;;;;;;;;;;;;13.32;100.00;101852.97;5092912;28;20375;-44
2023/09/15 04:17:25;;;;;;;0.00;0.00;;;;;;;13.29;100.00;101858.72;5090059;28;20263;-44
2023/09/15 04:19:51;;;;;;;0.00;0.00;;;;;;;13.28;100.00;101856.19;5090420;28;20070;-47
2023/09/15 04:22:16;;;;;;;0.00;0.00;;;;;;;13.26;100.00;101850.94;5090693;28;20054;-44
2023/09/15 04:24:42;;;;;;;0.00;0.00;;;;;;;13.25;100.00;101849.25;5090200;28;20036;-45
2023/09/15 04:27:07;;;;;;;0.00;0.00;;;;;;;13.26;100.00;101850.94;5090873;28;20102;-43
2023/09/15 04:29:32;;;;;;;0.00;0.00;;;;;;;13.26;100.00;101855.50;5091010;28;20349;-44
2023/09/15 04:31:58;;;;;;;0.00;0.00;;;;;;;13.26;100.00;101853.66;5088541;28;20032;-43
2023/09/15 04:34:24;;;;;;;0.00;0.00;;;;;;;13.26;100.00;101847.38;5088829;28;20472;-46
2023/09/15 04:36:49;;;;;;;0.00;0.00;;;;;;;13.28;100.00;101848.91;5090437;28;20024;-45
2023/09/15 04:39:15;;;;;;;0.00;0.00;;;;;;;13.28;100.00;101842.69;5089357;28;20304;-44
2023/09/15 04:41:40;;;;;;;0.00;0.00;;;;;;;13.27;100.00;101844.53;5090509;28;20095;-44
2023/09/15 04:44:06;;;;;;;0.00;0.00;;;;;;;13.25;100.00;101843.84;5089939;28;20133;-44
2023/09/15 04:46:31;;;;;;;0.00;0.00;;;;;;;13.22;100.00;101840.63;5096870;28;20486;-43
2023/09/15 04:48:56;;;;;;;0.00;0.00;;;;;;;13.23;100.00;101842.31;5091777;28;20089;-44
2023/09/15 04:51:22;;;;;;;0.00;0.00;;;;;;;13.24;100.00;101844.84;5091665;28;20482;-44
2023/09/15 04:53:47;;;;;;;0.00;0.00;;;;;;;13.22;100.00;101844.19;5090167;28;20047;-44
2023/09/15 04:56:13;;;;;;;0.00;0.00;;;;;;;13.18;100.00;101840.13;5101406;28;20073;-43
2023/09/15 04:58:38;;;;;;;0.00;0.00;;;;;;;13.14;100.00;101849.63;5089982;28;20028;-46
2023/09/15 05:01:07;;;;;;;0.00;0.00;;;;;;;13.15;100.00;101845.91;5094916;28;20046;-43
2023/09/15 05:03:32;;;;;;;0.00;0.00;;;;;;;13.13;100.00;101845.22;5102936;28;20024;-46
2023/09/15 05:05:59;;;;;;;0.00;0.00;;;;;;;13.15;100.00;101854.84;5092053;28;20031;-44
2023/09/15 05:08:24;;;;;;;0.00;0.00;;;;;;;13.15;100.00;101854.00;5091340;28;20103;-43
2023/09/15 05:10:50;;;;;;;0.00;0.00;;;;;;;13.11;100.00;101856.22;5093522;28;20331;-45
2023/09/15 05:13:15;;;;;;;0.43;0.00;;;;;;;13.11;100.00;101861.63;5092040;28;20032;-45
2023/09/15 05:15:40;;;;;;;0.00;0.00;;;;;;;13.11;100.00;101860.75;5101440;28;20038;-44
2023/09/15 05:18:06;;;;;;;0.00;0.00;;;;;;;13.07;100.00;101860.28;5112362;28;20031;-46
2023/09/15 05:20:31;;;;;;;0.00;0.00;;;;;;;13.09;100.00;101873.63;5109454;28;20575;-43
2023/09/15 05:22:57;;;;;;;0.00;0.00;;;;;;;13.06;100.00;101871.25;5091903;28;20024;-43
2023/09/15 05:25:22;;;;;;;0.00;0.00;;;;;;;13.10;100.00;101861.78;5095087;28;20493;-43
2023/09/15 05:27:47;;;;;;;0.00;0.00;;;;;;;13.12;100.00;101866.00;5104625;28;20031;-45
2023/09/15 05:30:15;;;;;;;0.00;0.00;;;;;;;13.12;100.00;101867.88;5090489;28;20024;-44
2023/09/15 05:32:40;;;;;;;0.00;0.00;;;;;;;13.09;100.00;101868.22;5108132;28;20031;-46
2023/09/15 05:35:08;;;;;;;0.00;0.00;;;;;;;13.12;100.00;101862.47;5108407;28;20385;-42
2023/09/15 05:37:34;;;;;;;0.00;0.00;;;;;;;13.12;100.00;101867.88;5091374;28;20231;-44
2023/09/15 05:39:59;;;;;;;0.00;0.00;;;;;;;13.14;100.00;101861.28;5090936;28;20032;-45
2023/09/15 05:42:24;;;;;;;0.00;0.00;;;;;;;13.12;100.00;101866.00;5104813;28;20470;-44
2023/09/15 05:44:50;;;;;;;0.00;0.00;;;;;;;13.13;100.00;101861.44;5111259;28;20028;-45
2023/09/15 05:47:15;;;;;;;0.00;0.00;;;;;;;13.16;100.00;101867.38;5094033;28;20386;-44
2023/09/15 05:49:40;;;;;;;0.00;0.00;;;;;;;13.15;100.00;101860.25;5096150;28;20015;-46
2023/09/15 05:52:06;;;;;;;0.00;0.00;;;;;;;13.16;100.00;101871.91;5103181;28;20031;-43
2023/09/15 05:54:31;;;;;;;0.00;0.00;;;;;;;13.18;100.00;101873.41;5096334;28;20024;-44
2023/09/15 05:56:57;;;;;;;0.00;0.00;;;;;;;13.20;100.00;101865.16;5103021;28;20512;-44
2023/09/15 05:59:22;;;;;;;0.00;0.00;;;;;;;13.24;100.00;101865.63;5092060;28;20056;-44
2023/09/15 06:01:47;;;;;;;0.00;0.00;;;;;;;13.24;100.00;101860.22;5088924;28;20597;-42
2023/09/15 06:04:16;;;;;;;0.00;0.00;;;;;;;13.31;100.00;101872.91;5088882;28;20034;-47
2023/09/15 06:06:41;;;;;;;0.00;0.00;;;;;;;13.38;100.00;101868.47;5088673;28;20028;-46
2023/09/15 06:09:07;;;;;;;0.00;0.00;;;;;;;13.41;100.00;101870.00;5088827;28;20039;-44
2023/09/15 06:11:32;;;;;;;0.00;0.00;;;;;;;13.49;100.00;101869.13;5088621;28;20026;-45
2023/09/15 06:13:57;;;;;;;0.00;0.00;;;;;;;13.47;100.00;101868.44;5091452;28;20028;-45
2023/09/15 06:16:23;;;;;;;0.00;0.00;;;;;;;13.54;100.00;101872.13;5090537;28;20027;-45
2023/09/15 06:18:48;;;;;;;0.00;0.00;;;;;;;13.51;100.00;101867.09;5090518;28;20467;-47
2023/09/15 06:21:14;;;;;;;0.00;0.00;;;;;;;13.51;100.00;101872.50;5092311;28;20032;-41
2023/09/15 06:23:39;;;;;;;0.00;0.00;;;;;;;13.56;100.00;101873.66;5110713;28;20419;-43
2023/09/15 06:26:04;;;;;;;0.00;0.00;;;;;;;13.61;100.00;101871.25;5112080;28;20510;-44
2023/09/15 06:28:30;;;;;;;0.00;0.00;;;;;;;13.73;100.00;101871.69;5111872;28;20346;-45
2023/09/15 06:30:55;;;;;;;0.00;0.00;;;;;;;13.92;100.00;101866.84;5111600;28;20139;-42
2023/09/15 06:33:21;;;;;;;0.00;0.00;;;;;;;14.06;100.00;101868.81;5110662;28;20040;-47
2023/09/15 06:35:47;;;;;;;0.00;0.00;;;;;;;14.13;100.00;101867.03;5091891;28;20082;-45
2023/09/15 06:38:12;;;;;;;0.00;0.00;;;;;;;14.37;100.00;101868.72;5110606;28;20046;-45
2023/09/15 06:40:38;;;;;;;0.00;0.00;;;;;;;14.90;100.00;101863.34;5095076;28;20016;-44
2023/09/15 06:43:06;;;;;;;0.00;0.00;;;;;;;15.76;100.00;101860.97;5094736;28;20042;-48
2023/09/15 06:45:31;;;;;;;0.00;0.00;;;;;;;16.81;100.00;101843.97;5103759;28;20023;-45
2023/09/15 06:47:59;;;;;;;0.00;0.00;;;;;;;17.99;100.00;101813.94;5097016;27;20082;-46
2023/09/15 06:50:24;;;;;;;0.00;0.00;;;;;;;18.36;100.00;101803.47;5095580;28;20035;-45
2023/09/15 06:52:50;;;;;;;0.00;0.00;;;;;;;18.53;100.00;101801.97;5113434;27;20039;-43
2023/09/15 06:55:15;;;;;;;0.00;0.00;;;;;;;19.27;100.00;101808.13;5114648;28;20019;-44
2023/09/15 06:57:40;;;;;;;0.00;0.00;;;;;;;19.73;100.00;101802.47;5112406;27;20077;-44
2023/09/15 07:00:07;;;;;;;0.00;0.00;;;;;;;20.46;100.00;101811.16;5101340;28;20285;-44
2023/09/15 07:02:32;;;;;;;0.00;0.00;;;;;;;20.53;100.00;101803.75;5111004;27;20095;-44
2023/09/15 07:04:57;;;;;;;0.00;0.00;;;;;;;21.15;100.00;101807.31;5094127;28;20038;-45
2023/09/15 07:07:23;;;;;;;0.00;0.00;;;;;;;21.29;100.00;101813.47;5097547;27;20107;-47
2023/09/15 07:09:48;;;;;;;0.00;0.00;;;;;;;21.77;100.00;101807.16;5095203;28;20066;-47
2023/09/15 07:12:14;;;;;;;0.00;0.00;;;;;;;21.53;100.00;101803.47;5104009;27;20022;-48
2023/09/15 07:14:39;;;;;;;0.00;0.00;;;;;;;22.10;100.00;101812.13;5100267;28;20028;-44
2023/09/15 07:17:05;;;;;;;0.00;0.00;;;;;;;21.97;100.00;101812.34;5100144;28;20019;-45
2023/09/15 07:19:30;;;;;;;0.00;0.00;;;;;;;22.42;100.00;101811.84;5095708;28;20157;-43
2023/09/15 07:21:56;;;;;;;0.00;0.00;;;;;;;23.58;100.00;101822.06;5103174;27;20584;-42
2023/09/15 07:24:21;;;;;;;0.00;0.00;;;;;;;24.23;97.24;101812.56;5099795;28;20032;-48
2023/09/15 07:26:47;;;;;;;0.00;0.00;;;;;;;24.84;94.59;101818.19;5102795;28;20039;-44
2023/09/15 07:29:13;;;;;;;0.00;0.00;;;;;;;23.81;96.11;101802.75;5114329;28;20038;-43
2023/09/15 07:31:42;;;;;;;0.00;0.00;;;;;;;24.84;92.99;101802.50;5111915;27;20035;-44
2023/09/15 07:34:08;;;;;;;0.00;0.00;;;;;;;24.62;97.29;101798.88;5096564;27;20043;-48
2023/09/15 07:36:33;;;;;;;0.00;0.00;;;;;;;24.89;95.34;101801.75;5114504;28;20019;-44
2023/09/15 07:38:58;;;;;;;0.00;0.00;;;;;;;25.95;88.43;101795.81;5108856;28;20034;-46
2023/09/15 07:41:24;;;;;;;0.00;0.00;;;;;;;25.88;89.92;101791.63;5113333;28;20047;-45
2023/09/15 07:43:51;;;;;;;0.00;0.00;;;;;;;25.75;90.45;101795.59;5104655;28;20028;-45
2023/09/15 07:46:17;;;;;;;0.00;0.00;;;;;;;25.93;89.33;101797.19;5113476;28;20558;-45
2023/09/15 07:48:43;;;;;;;0.00;0.00;;;;;;;26.15;89.21;101780.56;5096468;28;20039;-44
2023/09/15 07:51:08;;;;;;;0.00;0.00;;;;;;;26.27;84.73;101782.00;5099914;27;20058;-43
2023/09/15 07:53:33;;;;;;;0.00;0.00;;;;;;;25.83;89.20;101792.38;5101486;28;20031;-43
2023/09/15 07:55:59;;;;;;;0.00;0.00;;;;;;;26.74;83.15;101785.94;5095493;28;20133;-45
2023/09/15 07:58:24;;;;;;;0.00;0.00;;;;;;;26.52;84.33;101774.22;5097243;28;20039;-45
2023/09/15 08:00:50;;;;;;;0.00;0.00;;;;;;;26.27;86.19;101792.22;5099476;28;20521;-42
2023/09/15 08:03:15;;;;;;;0.00;0.00;;;;;;;26.20;87.45;101775.91;5099306;28;20031;-44
2023/09/15 08:05:41;;;;;;;0.00;0.00;;;;;;;27.23;81.02;101787.59;5103569;27;20361;-43
2023/09/15 08:08:06;;;;;;;0.00;0.00;;;;;;;27.02;80.81;101783.88;5101246;28;20061;-42
2023/09/15 08:10:32;;;;;;;0.00;0.00;;;;;;;27.34;81.17;101784.56;5101841;28;20146;-43
2023/09/15 08:12:57;;;;;;;0.00;0.00;;;;;;;27.60;80.21;101781.88;5098206;28;20021;-43
2023/09/15 08:15:22;;;;;;;0.00;0.00;;;;;;;27.24;83.44;101784.53;5104475;27;20084;-44
2023/09/15 08:17:49;;;;;;;0.00;0.00;;;;;;;27.43;82.21;101781.28;5106417;28;20027;-42
2023/09/15 08:20:15;;;;;;;0.00;0.00;;;;;;;28.33;79.27;101778.03;5102442;28;20185;-44
2023/09/15 08:22:41;;;;;;;0.00;0.00;;;;;;;29.32;71.82;101779.13;5103817;28;20521;-44
2023/09/15 08:25:07;;;;;;;0.00;0.00;;;;;;;29.26;71.66;101785.00;5102735;28;20124;-44
2023/09/15 08:27:32;;;;;;;0.00;0.00;;;;;;;28.86;73.34;101781.28;5091626;28;20401;-41
2023/09/15 08:29:58;;;;;;;0.00;0.00;;;;;;;29.03;73.99;101786.47;5100052;27;20027;-47
2023/09/15 08:32:24;;;;;;;0.00;0.00;;;;;;;28.71;75.17;101784.09;5103148;28;20020;-44
2023/09/15 08:34:50;;;;;;;0.00;0.00;;;;;;;29.66;70.97;101783.94;5103247;28;20047;-44
2023/09/15 08:37:15;;;;;;;0.00;0.00;;;;;;;29.91;68.84;101784.88;5105645;28;20023;-46
2023/09/15 08:39:40;;;;;;;0.00;0.00;;;;;;;29.67;67.97;101787.56;5104335;27;20035;-44
2023/09/15 08:42:13;;;;;;;0.00;0.00;;;;;;;29.48;67.83;101782.66;5098057;28;20181;-43
2023/09/15 08:44:39;;;;;;;0.00;0.00;;;;;;;28.65;72.28;101770.25;5093185;28;20059;-45
2023/09/15 08:47:05;;;;;;;0.00;0.00;;;;;;;28.71;69.94;101779.38;5092019;28;20060;-43
2023/09/15 08:49:31;;;;;;;0.00;0.00;;;;;;;28.82;73.10;101780.16;5093547;28;20099;-44
2023/09/15 08:51:57;;;;;;;0.00;0.00;;;;;;;29.79;69.43;101782.47;5108766;28;20035;-43
2023/09/15 08:54:23;;;;;;;0.00;0.00;;;;;;;29.35;67.15;101779.69;5092138;28;20020;-45
2023/09/15 08:56:49;;;;;;;0.00;0.00;;;;;;;28.48;71.34;101791.06;5112162;28;20038;-44
2023/09/15 08:59:15;;;;;;;0.00;0.00;;;;;;;28.13;72.75;101774.19;5112166;28;20054;-44
2023/09/15 09:01:40;;;;;;;0.00;0.00;;;;;;;28.00;74.80;101780.28;5108227;28;20042;-45
2023/09/15 09:04:05;;;;;;;0.00;0.00;;;;;;;28.08;74.27;101771.41;5092824;28;20103;-43
2023/09/15 09:06:34;;;;;;;0.00;0.00;;;;;;;28.86;71.15;101776.56;5109349;28;20059;-44
2023/09/15 09:09:00;;;;;;;0.00;0.00;;;;;;;28.62;70.89;101773.59;5103430;28;20077;-45
2023/09/15 09:11:27;;;;;;;0.00;0.00;;;;;;;28.83;68.62;101773.50;5098371;27;20062;-47
2023/09/15 09:13:53;;;;;;;0.00;0.00;;;;;;;27.31;72.69;101768.53;5090896;28;20043;-42
2023/09/15 09:16:20;;;;;;;0.00;0.00;;;;;;;26.57;77.54;101757.66;5106974;28;20362;-43
2023/09/15 09:18:58;;;;;;;0.00;0.00;;;;;;;25.42;81.37;101755.31;5107653;28;20027;-45
2023/09/15 09:21:28;;;;;;;0.00;0.00;;;;;;;25.33;82.45;101757.66;5103884;28;20773;-43
2023/09/15 09:23:55;;;;;;;0.00;0.00;;;;;;;25.47;82.52;101758.94;5092270;28;20034;-41
2023/09/15 09:26:20;;;;;;;0.00;0.00;;;;;;;24.84;83.54;101758.44;5109784;28;20481;-42
2023/09/15 09:28:46;;;;;;;0.00;0.00;;;;;;;24.30;88.21;101753.53;5099862;28;20118;-46
2023/09/15 09:31:12;;;;;;;0.00;0.00;;;;;;;24.68;85.63;101751.91;5109060;28;20046;-44
2023/09/15 09:33:38;;;;;;;0.00;0.00;;;;;;;24.08;86.88;101736.94;5098914;28;20024;-43
2023/09/15 09:36:13;;;;;;;0.00;0.00;;;;;;;23.79;87.82;101738.94;5115952;27;20019;-42
2023/09/15 09:38:44;;;;;;;0.20;0.00;;;;;;;24.13;85.18;101736.19;5107412;27;20050;-46
2023/09/15 09:41:10;;;;;;;0.00;0.00;;;;;;;24.02;86.88;101734.38;5109022;28;20027;-45
2023/09/15 09:43:37;;;;;;;0.00;0.00;;;;;;;23.82;88.81;101735.69;5105690;28;20103;-46
2023/09/15 09:46:03;;;;;;;0.00;0.00;;;;;;;23.48;90.40;101733.94;5112112;28;20031;-43
2023/09/15 09:48:29;;;;;;;0.00;0.00;;;;;;;23.38;88.11;101731.84;5096742;28;20510;-44
2023/09/15 09:50:55;;;;;;;0.00;0.00;;;;;;;23.31;90.33;101726.50;5099393;28;20031;-43
2023/09/15 09:53:32;;;;;;;0.00;0.00;;;;;;;23.16;91.21;101731.69;5097865;28;20546;-46
2023/09/15 09:56:01;;;;;;;0.00;0.00;;;;;;;22.72;91.67;101725.81;5098247;28;20035;-42
2023/09/15 09:58:27;;;;;;;0.00;0.00;;;;;;;22.69;94.02;101723.56;5098668;28;20059;-45
2023/09/15 10:00:53;;;;;;;0.00;0.00;;;;;;;22.63;92.09;101722.63;5115773;27;20093;-44
2023/09/15 10:03:19;;;;;;;0.00;0.00;;;;;;;22.26;94.26;101722.88;5113880;27;20454;-45
2023/09/15 10:05:45;;;;;;;0.00;0.00;;;;;;;22.05;94.43;101721.53;5095478;28;20021;-43
2023/09/15 10:08:11;;;;;;;0.00;0.00;;;;;;;21.74;94.88;101725.41;5089545;28;20031;-46
2023/09/15 10:10:41;;;;;;;0.00;0.00;;;;;;;21.30;96.80;101722.06;5090742;28;20027;-45
2023/09/15 10:13:07;;;;;;;0.00;0.00;;;;;;;21.22;98.88;101720.47;5097276;28;20031;-45
2023/09/15 10:15:34;;;;;;;0.00;0.00;;;;;;;21.12;99.31;101728.41;5101986;28;20050;-44
2023/09/15 10:17:59;;;;;;;0.00;0.00;;;;;;;21.16;99.72;101715.91;5110258;28;20030;-44
2023/09/15 10:20:25;;;;;;;0.00;0.00;;;;;;;21.18;97.45;101712.94;5090860;28;20024;-46
2023/09/15 10:22:50;;;;;;;0.00;0.00;;;;;;;21.09;98.09;101717.06;5092354;28;20482;-45
2023/09/15 10:25:21;;;;;;;0.00;0.00;;;;;;;21.17;99.23;101708.53;5087278;28;20103;-47
2023/09/15 10:27:46;;;;;;;0.00;0.00;;;;;;;21.09;98.30;101701.50;5088811;28;20494;-46
2023/09/15 10:30:12;;;;;;;0.00;0.00;;;;;;;20.96;96.75;101702.50;5088648;28;20053;-46
2023/09/15 10:32:39;;;;;;;0.00;0.00;;;;;;;20.97;100.00;101697.84;5088618;28;20028;-46
2023/09/15 10:35:05;;;;;;;0.00;0.00;;;;;;;21.26;97.41;101697.03;5088877;28;20111;-43
2023/09/15 10:37:32;;;;;;;0.00;0.00;;;;;;;21.53;94.49;101696.66;5087208;28;20489;-48
2023/09/15 10:39:59;;;;;;;0.00;0.00;;;;;;;21.62;96.18;101680.75;5089405;28;20028;-43
2023/09/15 10:42:25;;;;;;;0.00;0.00;;;;;;;21.74;93.70;101691.72;5090400;28;20111;-44
2023/09/15 10:44:50;;;;;;;0.00;0.00;;;;;;;21.70;92.09;101681.22;5088991;28;20109;-46
2023/09/15 10:47:20;;;;;;;0.00;0.00;;;;;;;21.76;91.63;101687.66;5091969;28;20412;-43
2023/09/15 10:49:50;;;;;;;0.00;0.00;;;;;;;21.57;94.33;101681.44;5097778;28;20054;-47
2023/09/15 10:52:16;;;;;;;0.00;0.00;;;;;;;21.25;93.44;101681.69;5110224;28;20027;-44
2023/09/15 10:54:41;;;;;;;0.00;0.00;;;;;;;21.36;94.83;101680.03;5094181;28;20028;-48
2023/09/15 10:57:08;;;;;;;0.00;0.00;;;;;;;21.23;95.28;101678.34;5090509;28;20454;-43
2023/09/15 10:59:35;;;;;;;0.00;0.00;;;;;;;21.07;95.85;101670.78;5094909;28;20043;-44
2023/09/15 11:02:00;;;;;;;0.00;0.00;;;;;;;21.13;96.56;101669.84;5110591;28;20114;-43
2023/09/15 11:04:28;;;;;;;0.00;0.00;;;;;;;21.20;95.62;101661.56;5110669;28;20020;-43
2023/09/15 11:06:54;;;;;;;0.00;0.00;;;;;;;21.47;97.22;101659.25;5093936;28;20032;-45
2023/09/15 11:09:20;;;;;;;0.00;0.00;;;;;;;21.67;97.20;101658.97;5090323;28;20030;-46
2023/09/15 11:11:46;;;;;;;0.00;0.00;;;;;;;21.63;95.23;101663.22;5096146;28;20020;-44
2023/09/15 11:14:16;;;;;;;0.00;0.00;;;;;;;21.59;94.17;101657.41;5102382;28;20035;-47
2023/09/15 11:16:50;;;;;;;0.00;0.00;;;;;;;21.61;94.59;101652.50;5095970;28;20484;-44